Ashland, Texas
Current Conditions -  °F | °C
As of 9:55 PM on Tuesday 27 Jan 2015 (Local Time) from KJXI Reporting Station
Clear Clear  
Wind Chill: 51°   Ceiling: Unl
Heat Index: 51°   Visibility: 10mi
Dew Point: 42°   Wind: 0mph
Humidity: 70%   Direction: NA
Pressure: 30.13"   Gusts: NA
Location:  32.6998°N, 94.6696°W
Report Text: KJXI 280355Z AUTO 00000KT 10SM CLR 11/05 A3013 RMK AO2 T01060054
Loading
Personal Weather Stations






























Interactive Weather Map New forecast layout! Learn more

10-Day Weather Forecast

Advertisements
Track Severe Weather on mobile